If you wish to contribute or participate in the discussions about articles you are invited to join SKYbrary as a registered user

 Actions

Sarakhs Airport

From SKYbrary Wiki

OIMC
Airport
ICAO: OIMC – IATA: CKT
Summary
Name Sarakhs Airport
Region Middle East
Territory Iran IR.gif
Location Sarakhs, Razavi Khorasan Province
Serving Sarakhs
Elevation 288.036 m
945 ft288.036 m
Coordinates 36° 29' 17.00" N, 61° 4' 12.00" E
Runways
Designator Length Width Surface ROPS
14/32 3986 m13,077.428 ft
45 m147.638 ft
ASP /


METAR
Observation OIMC 210200Z 00000KT 9999 BKN035 11/11 Q1016
Station Sarakhs
Date/Time 21 April 2019 02:00:00
Wind direction
Wind speed 00 kts
Lowest cloud amount broken clouds
Temperature 11°C
Dew point 11°C
Humidity 100%
QNH 1016 hPa
Weather condition n/a

Airport 8km4.32 nm
8,000 m
26,246.719 ft
southwest of the city of Sarakhs, Iran, close to the border with Turkmenistan.

Climatology

Cold Semi-arid climate (Köppen climate classification Bsk).

Maps

Terrain

Loading map...

Airport Layout

Loading map...


Accidents & Serious Incidents at or in vicinity of OIMC

None on SKYbrary